This is the latest recevied weather packets stored in our database for station/object K1ZK-13. If no packets are shown the sender has not sent any weather packets the latest 1 day(s).
| Time | Temp. | Humidity | Pressure | Rain* | Wind** | Luminosity | Snow |
|---|---|---|---|---|---|---|---|
| 1778103698 | 6.67° C | 99% | 1009 hPa | 0 mm | - | 58 W/m² | - |
| 1778101878 | 6.67° C | 99% | 1008.6 hPa | 1.78 mm | - | 64 W/m² | - |
| 1778101575 | 6.67° C | 99% | 1008.5 hPa | 1.78 mm | - | 64 W/m² | - |
| 1778100058 | 6.11° C | 99% | 1008.9 hPa | 4.32 mm | - | 65 W/m² | - |
| 1778097027 | 6.11° C | 99% | 1008.6 hPa | 0 mm | - | 53 W/m² | - |
| 1778095512 | 6.67° C | 99% | 1008.4 hPa | 0 mm | - | 51 W/m² | - |
| 1778095208 | 6.67° C | 99% | 1008.3 hPa | 1.27 mm | - | 80 W/m² | - |
| 1778094905 | 6.67° C | 99% | 1008.5 hPa | 1.27 mm | - | 92 W/m² | - |
| 1778093080 | 6.11° C | 99% | 1008.5 hPa | 0 mm | - | 91 W/m² | - |
| 1778092777 | 6.67° C | 99% | 1008.7 hPa | 1.27 mm | - | 118 W/m² | - |
| 1778092170 | 6.11° C | 99% | 1008.7 hPa | 0 mm | - | 73 W/m² | - |
| 1778091867 | 6.11° C | 99% | 1008.8 hPa | 0 mm | - | 73 W/m² | - |
| 1778090655 | 6.67° C | 99% | 1009.1 hPa | 1.78 mm | - | 76 W/m² | - |
| 1778090049 | 6.11° C | 99% | 1009.1 hPa | 0 mm | - | 100 W/m² | - |
| 1778088534 | 6.11° C | 99% | 1009.4 hPa | 1.78 mm | - | 106 W/m² | - |
| 1778087928 | 6.11° C | 99% | 1009.4 hPa | 3.05 mm | - | 108 W/m² | - |
| 1778087322 | 5.56° C | 99% | 1009.4 hPa | 1.27 mm | - | 99 W/m² | - |
| 1778086409 | 6.11° C | 99% | 1009.4 hPa | 0 mm | - | 103 W/m² | - |
| 1778085796 | 5.56° C | 99% | 1009.6 hPa | 1.27 mm | - | 103 W/m² | - |
| 1778085494 | 6.11° C | 99% | 1009.9 hPa | 1.27 mm | - | 73 W/m² | - |
| 1778084582 | 5.56° C | 99% | 1009.8 hPa | 1.27 mm | - | 103 W/m² | - |
| 1778082760 | 5.56° C | 99% | 1009.8 hPa | 1.27 mm | - | 52 W/m² | - |
| 1778063772 | 7.78° C | 99% | 1009.9 hPa | 19.81 mm | - | 4 W/m² | - |
| 1778052872 | 10.56° C | 99% | 1010.1 hPa | 16.76 mm | - | 0 W/m² | - |
| 1778036522 | 14.44° C | 72% | 1008.8 hPa | 0 mm | - | 0 W/m² | - |
* Rain latest hour (hover to see other rain measurements)
** Current wind speed in m/s (hover to see current wind gust speed)